createdAt,value
2018-12-27T00:01:59.579Z,3.03
2018-12-27T00:04:35.741Z,3.80
2018-12-27T00:07:09.683Z,2.33
2018-12-27T00:09:56.897Z,6.40
2018-12-27T00:12:31.200Z,2.40
2018-12-27T00:18:01.196Z,2.67
2018-12-27T00:20:38.442Z,3.50
2018-12-27T00:23:16.259Z,4.83
2018-12-27T00:25:55.401Z,3.73
2018-12-27T00:28:37.362Z,2.63
2018-12-27T00:31:21.983Z,1.90
2018-12-27T00:34:11.849Z,3.80
2018-12-27T00:36:53.418Z,3.00
2018-12-27T00:39:31.116Z,2.50
2018-12-27T00:42:06.338Z,2.33
2018-12-27T00:44:41.740Z,2.80
2018-12-27T00:47:19.005Z,1.47
2018-12-27T00:50:02.436Z,3.10
2018-12-27T00:52:37.558Z,1.93
2018-12-27T00:55:22.407Z,2.93
2018-12-27T00:58:00.235Z,26.80
2018-12-27T01:00:37.160Z,21.87
2018-12-27T01:03:29.975Z,8.07
2018-12-27T01:06:04.346Z,3.27
2018-12-27T01:08:44.939Z,4.50
2018-12-27T01:11:20.048Z,3.63
2018-12-27T01:13:54.112Z,3.43
2018-12-27T01:16:31.198Z,5.27
2018-12-27T01:19:12.956Z,3.47
2018-12-27T01:21:46.935Z,5.83
2018-12-27T01:24:21.747Z,5.67
2018-12-27T01:26:59.428Z,3.47
2018-12-27T01:29:38.666Z,4.27
2018-12-27T01:35:12.193Z,4.63
2018-12-27T01:37:50.581Z,3.33
2018-12-27T01:40:34.323Z,2.83
2018-12-27T01:43:09.046Z,4.27
2018-12-27T01:45:54.545Z,5.40
2018-12-27T01:48:31.466Z,4.63
2018-12-27T01:51:08.971Z,5.00
2018-12-27T01:53:49.310Z,5.30
2018-12-27T01:56:23.470Z,4.33
2018-12-27T01:59:19.868Z,5.20
2018-12-27T02:01:55.529Z,6.77
2018-12-27T02:04:32.397Z,6.77
2018-12-27T02:07:12.771Z,7.80
2018-12-27T02:09:47.539Z,8.13
2018-12-27T02:12:21.491Z,6.80
2018-12-27T02:14:58.773Z,7.33
2018-12-27T02:17:32.812Z,7.50
2018-12-27T02:20:07.764Z,8.87
2018-12-27T02:22:43.175Z,5.90
2018-12-27T02:25:18.553Z,6.33
2018-12-27T02:27:52.958Z,6.10
2018-12-27T02:30:29.348Z,6.27
2018-12-27T02:33:09.155Z,4.57
2018-12-27T02:35:43.295Z,4.27
2018-12-27T02:38:18.617Z,4.33
2018-12-27T02:40:52.599Z,4.03
2018-12-27T02:43:28.615Z,3.90
2018-12-27T02:46:02.778Z,2.57
2018-12-27T02:48:39.150Z,2.60
2018-12-27T02:51:13.276Z,3.17
2018-12-27T02:53:50.318Z,2.87
2018-12-27T02:56:25.334Z,3.47
2018-12-27T02:58:59.971Z,1.87
2018-12-27T03:01:34.106Z,2.37
2018-12-27T03:04:08.390Z,2.17
2018-12-27T03:06:42.827Z,1.80
2018-12-27T03:09:18.857Z,3.30
2018-12-27T03:11:59.715Z,2.70
2018-12-27T03:14:35.933Z,2.83
2018-12-27T03:17:10.070Z,2.70
2018-12-27T03:20:03.710Z,3.03
2018-12-27T03:22:41.862Z,3.33
2018-12-27T03:25:15.861Z,3.67
2018-12-27T03:27:50.106Z,2.13
2018-12-27T03:30:25.517Z,2.37
2018-12-27T03:33:04.391Z,2.90
2018-12-27T03:35:40.589Z,2.90
2018-12-27T03:38:19.544Z,2.53
2018-12-27T03:40:58.045Z,2.80
2018-12-27T03:43:32.170Z,2.10
2018-12-27T03:46:07.470Z,3.20
2018-12-27T03:48:42.590Z,2.27
2018-12-27T03:51:27.603Z,3.90
2018-12-27T03:54:22.575Z,6.70
2018-12-27T03:57:11.219Z,5.13
2018-12-27T04:00:03.663Z,5.70
2018-12-27T04:02:38.290Z,4.53
2018-12-27T04:05:16.599Z,7.00
2018-12-27T04:07:52.658Z,4.80
2018-12-27T04:10:26.762Z,4.60
2018-12-27T04:13:02.574Z,5.47
2018-12-27T04:15:36.655Z,2.40
2018-12-27T04:18:11.275Z,3.10
2018-12-27T04:20:51.427Z,2.27
2018-12-27T04:23:26.201Z,2.30
2018-12-27T04:26:29.402Z,5.13
2018-12-27T04:29:09.861Z,3.70
2018-12-27T04:31:46.494Z,4.10
2018-12-27T04:34:20.748Z,3.60
2018-12-27T04:36:59.952Z,4.13
2018-12-27T04:39:41.623Z,6.50
2018-12-27T04:42:15.927Z,6.63
2018-12-27T04:44:55.908Z,7.17
2018-12-27T04:47:31.095Z,6.67
2018-12-27T04:50:05.486Z,4.17
2018-12-27T04:52:48.269Z,3.37
2018-12-27T04:55:23.532Z,2.67
2018-12-27T04:57:58.587Z,3.03
2018-12-27T05:00:37.685Z,2.47
2018-12-27T05:03:11.745Z,2.67
2018-12-27T05:05:46.678Z,4.37
2018-12-27T05:08:23.394Z,3.80
2018-12-27T05:10:57.445Z,2.47
2018-12-27T05:13:49.689Z,2.63
2018-12-27T05:16:39.539Z,3.87
2018-12-27T05:19:15.619Z,3.93
2018-12-27T05:21:57.244Z,5.20
2018-12-27T05:24:35.479Z,2.93
2018-12-27T05:27:14.254Z,3.90
2018-12-27T05:29:53.011Z,3.03
2018-12-27T05:32:27.797Z,2.43
2018-12-27T05:35:03.325Z,3.07
2018-12-27T05:37:42.100Z,2.10
2018-12-27T05:40:20.160Z,2.07
2018-12-27T05:42:58.748Z,2.40
2018-12-27T05:45:34.815Z,2.40
2018-12-27T05:48:24.648Z,4.17
2018-12-27T05:50:58.815Z,1.40
2018-12-27T05:53:38.257Z,1.60
2018-12-27T05:56:18.396Z,2.20
2018-12-27T05:58:57.455Z,2.90
2018-12-27T06:01:56.105Z,2.00
2018-12-27T06:04:33.766Z,3.27
2018-12-27T06:07:11.077Z,3.17
2018-12-27T06:09:45.154Z,3.10
2018-12-27T06:12:22.484Z,2.30
2018-12-27T06:15:00.179Z,3.03
2018-12-27T06:17:35.092Z,3.87
2018-12-27T06:20:09.952Z,3.97
2018-12-27T06:22:52.912Z,3.83
2018-12-27T06:25:28.589Z,4.03
2018-12-27T06:28:05.427Z,4.20
2018-12-27T06:30:40.850Z,2.50
2018-12-27T06:33:16.791Z,3.73
2018-12-27T06:35:50.853Z,2.67
2018-12-27T06:38:35.595Z,2.93
2018-12-27T06:41:10.083Z,2.73
2018-12-27T06:43:45.278Z,2.70
2018-12-27T06:46:32.182Z,2.87
2018-12-27T06:52:18.486Z,3.77
2018-12-27T06:54:55.372Z,3.43
2018-12-27T06:57:36.213Z,2.03
2018-12-27T07:00:13.355Z,1.73
2018-12-27T07:02:52.298Z,2.43
2018-12-27T07:05:27.243Z,3.97
2018-12-27T07:08:06.167Z,4.00
2018-12-27T07:10:41.343Z,3.23
2018-12-27T07:13:16.731Z,2.27
2018-12-27T07:15:52.849Z,2.70
2018-12-27T07:18:28.055Z,3.50
2018-12-27T07:21:02.137Z,3.83
2018-12-27T07:23:38.556Z,2.30
2018-12-27T07:26:34.158Z,3.70
2018-12-27T07:29:08.987Z,4.73
2018-12-27T07:31:42.647Z,6.30
2018-12-27T07:34:25.056Z,3.20
2018-12-27T07:36:59.973Z,3.70
2018-12-27T07:39:34.158Z,3.63
2018-12-27T07:42:28.365Z,3.07
2018-12-27T07:45:15.547Z,4.67
2018-12-27T07:48:03.965Z,5.83
2018-12-27T07:50:48.157Z,4.43
2018-12-27T07:53:21.644Z,4.30
2018-12-27T07:56:03.755Z,3.77
2018-12-27T07:58:37.859Z,3.77
2018-12-27T08:01:16.908Z,4.73
2018-12-27T08:03:55.025Z,4.27
2018-12-27T08:06:28.964Z,2.77
2018-12-27T08:09:02.973Z,4.03
2018-12-27T08:11:44.201Z,3.87
2018-12-27T08:14:27.836Z,3.43
2018-12-27T08:17:03.591Z,3.70
2018-12-27T08:19:38.281Z,3.77
2018-12-27T08:22:12.248Z,3.87
2018-12-27T08:24:51.373Z,4.60
2018-12-27T08:27:30.191Z,4.83
2018-12-27T08:32:58.815Z,4.93
2018-12-27T08:35:42.199Z,5.80
2018-12-27T08:38:17.753Z,4.07
2018-12-27T08:40:57.052Z,5.57
2018-12-27T08:43:39.979Z,4.03
2018-12-27T08:46:13.839Z,4.03
2018-12-27T08:48:50.538Z,4.43
2018-12-27T08:51:24.430Z,4.43
2018-12-27T08:54:08.331Z,5.87
2018-12-27T08:56:50.017Z,4.80
2018-12-27T08:59:27.095Z,3.87
2018-12-27T09:02:01.075Z,5.50
2018-12-27T09:04:39.558Z,4.10
2018-12-27T09:07:16.538Z,4.50
2018-12-27T09:09:52.277Z,4.33
2018-12-27T09:12:44.922Z,4.63
2018-12-27T09:15:27.830Z,4.03
2018-12-27T09:18:01.815Z,4.07
2018-12-27T09:20:35.918Z,3.83
2018-12-27T09:23:19.160Z,4.60
2018-12-27T09:25:53.425Z,4.10
2018-12-27T09:28:40.769Z,4.07
2018-12-27T09:31:14.564Z,4.60
2018-12-27T09:33:54.991Z,6.03
2018-12-27T09:36:32.578Z,6.67
2018-12-27T09:39:09.984Z,4.70
2018-12-27T09:41:50.458Z,8.67
2018-12-27T09:44:28.906Z,7.17
2018-12-27T09:47:06.895Z,8.73
2018-12-27T09:49:42.406Z,6.97
2018-12-27T09:52:16.850Z,7.67
2018-12-27T09:54:50.926Z,7.10
2018-12-27T09:57:27.965Z,7.73
2018-12-27T10:00:13.239Z,7.33
2018-12-27T10:03:05.235Z,5.77
2018-12-27T10:05:41.883Z,6.43
2018-12-27T10:08:19.983Z,6.80
2018-12-27T10:10:54.474Z,6.37
2018-12-27T10:13:28.451Z,4.03
2018-12-27T10:16:03.801Z,4.40
2018-12-27T10:18:38.803Z,10.33
2018-12-27T10:21:13.575Z,4.67
2018-12-27T10:23:48.715Z,4.17
2018-12-27T10:26:23.745Z,3.13
2018-12-27T10:29:07.091Z,4.83
2018-12-27T10:31:42.301Z,3.67
2018-12-27T10:34:24.737Z,3.40
2018-12-27T10:37:01.957Z,6.20
2018-12-27T10:39:35.994Z,3.40
2018-12-27T10:42:14.642Z,5.57
2018-12-27T10:44:52.233Z,3.27
2018-12-27T10:47:26.208Z,3.03
2018-12-27T10:50:00.461Z,2.77
2018-12-27T10:52:38.543Z,4.20
2018-12-27T10:55:18.797Z,3.10
2018-12-27T10:57:52.517Z,3.23
2018-12-27T11:00:28.780Z,3.87
2018-12-27T11:03:05.389Z,3.60
2018-12-27T11:05:48.597Z,3.23
2018-12-27T11:08:22.969Z,3.63
2018-12-27T11:11:02.151Z,2.53
2018-12-27T11:13:37.935Z,2.50
2018-12-27T11:16:17.567Z,2.50
2018-12-27T11:18:52.534Z,2.27
2018-12-27T11:21:26.584Z,3.67
2018-12-27T11:24:02.101Z,3.17
2018-12-27T11:26:41.454Z,2.83
2018-12-27T11:29:17.601Z,2.37
2018-12-27T11:32:19.245Z,3.50
2018-12-27T11:34:53.183Z,2.63
2018-12-27T11:37:46.810Z,3.63
2018-12-27T11:40:24.495Z,3.63
2018-12-27T11:42:59.671Z,3.73
2018-12-27T11:45:34.338Z,3.87
2018-12-27T11:48:17.296Z,3.23
2018-12-27T11:50:53.016Z,6.43
2018-12-27T11:53:54.198Z,7.77
2018-12-27T11:56:28.116Z,5.93
2018-12-27T11:59:02.094Z,3.00
2018-12-27T12:01:38.324Z,3.93
2018-12-27T12:04:13.188Z,3.97
2018-12-27T12:07:03.005Z,4.67
2018-12-27T12:09:37.021Z,4.40
2018-12-27T12:12:11.495Z,5.80
2018-12-27T12:14:45.811Z,5.63
2018-12-27T12:17:19.604Z,3.83
2018-12-27T12:19:54.908Z,4.53
2018-12-27T12:22:31.631Z,4.10
2018-12-27T12:25:06.718Z,5.43
2018-12-27T12:28:03.739Z,5.37
2018-12-27T12:30:42.760Z,5.43
2018-12-27T12:33:16.590Z,4.33
2018-12-27T12:35:50.459Z,4.03
2018-12-27T12:38:28.201Z,3.40
2018-12-27T12:41:04.061Z,5.23
2018-12-27T12:43:56.845Z,3.97
2018-12-27T12:46:36.182Z,5.47
2018-12-27T12:49:13.931Z,4.43
2018-12-27T12:51:50.285Z,3.13
2018-12-27T12:54:24.122Z,4.07
2018-12-27T12:56:58.018Z,3.97
2018-12-27T12:59:35.286Z,5.47
2018-12-27T13:02:09.343Z,3.43
2018-12-27T13:04:43.390Z,3.93
2018-12-27T13:07:17.420Z,7.07
2018-12-27T13:09:59.986Z,6.60
2018-12-27T13:12:36.092Z,10.00
2018-12-27T13:15:19.769Z,8.60
2018-12-27T13:17:55.343Z,8.20
2018-12-27T13:20:30.258Z,4.17
2018-12-27T13:23:04.689Z,4.20
2018-12-27T13:25:41.642Z,6.07
2018-12-27T13:28:17.055Z,8.80
2018-12-27T13:30:50.770Z,5.23
2018-12-27T13:33:24.797Z,30.30
2018-12-27T13:35:59.384Z,7.67
2018-12-27T13:38:33.358Z,4.57
2018-12-27T13:41:16.133Z,6.27
2018-12-27T13:43:50.452Z,5.73
2018-12-27T13:49:53.761Z,5.07
2018-12-27T13:52:27.914Z,8.03
2018-12-27T13:55:01.783Z,8.47
2018-12-27T14:00:32.425Z,7.13
2018-12-27T14:03:08.140Z,7.77
2018-12-27T14:05:42.510Z,8.13
2018-12-27T14:08:22.533Z,7.53
2018-12-27T14:11:00.490Z,7.67
2018-12-27T14:13:45.858Z,8.67
2018-12-27T14:16:33.836Z,14.37
2018-12-27T14:19:09.102Z,7.43
2018-12-27T14:21:49.216Z,9.60
2018-12-27T14:24:27.791Z,10.57
2018-12-27T14:27:05.913Z,10.77
2018-12-27T14:29:39.934Z,11.57
2018-12-27T14:32:15.209Z,12.53
2018-12-27T14:35:02.887Z,9.53
2018-12-27T14:37:38.303Z,11.80
2018-12-27T14:40:14.883Z,13.20
2018-12-27T14:42:49.017Z,11.57
2018-12-27T14:45:26.097Z,10.30
2018-12-27T14:48:14.346Z,9.20
2018-12-27T14:50:41.678Z,9.67
2018-12-27T14:53:16.688Z,7.27
2018-12-27T14:55:51.746Z,8.53
2018-12-27T14:58:25.573Z,7.17
2018-12-27T15:01:00.207Z,5.37
2018-12-27T15:03:34.355Z,7.13
2018-12-27T15:06:18.014Z,10.07
2018-12-27T15:08:51.985Z,4.17
2018-12-27T15:11:28.137Z,6.70
2018-12-27T15:14:12.079Z,4.07
2018-12-27T15:16:46.440Z,8.17
2018-12-27T15:19:20.345Z,3.90
2018-12-27T15:21:58.167Z,6.53
2018-12-27T15:24:32.520Z,6.17
2018-12-27T15:27:07.897Z,6.33
2018-12-27T15:29:42.779Z,5.30
2018-12-27T15:32:16.792Z,5.37
2018-12-27T15:34:53.709Z,9.00
2018-12-27T15:37:31.233Z,5.27
2018-12-27T15:40:05.957Z,7.17
2018-12-27T15:42:46.868Z,4.90
2018-12-27T15:45:20.783Z,7.23
2018-12-27T15:47:54.961Z,5.40
2018-12-27T15:50:29.683Z,5.33
2018-12-27T15:53:08.633Z,8.17
2018-12-27T15:55:42.788Z,6.83
2018-12-27T15:58:16.726Z,8.20
2018-12-27T16:00:51.652Z,8.90
2018-12-27T16:03:26.722Z,5.30
2018-12-27T16:06:06.688Z,8.03
2018-12-27T16:08:40.502Z,6.27
2018-12-27T16:11:15.602Z,4.80
2018-12-27T16:13:51.682Z,6.63
2018-12-27T16:16:30.931Z,6.73
2018-12-27T16:19:05.853Z,7.43
2018-12-27T16:21:41.023Z,7.47
2018-12-27T16:24:14.945Z,8.93
2018-12-27T16:26:49.143Z,9.90
2018-12-27T16:29:24.089Z,9.53
2018-12-27T16:31:58.346Z,10.20
2018-12-27T16:34:33.234Z,11.83
2018-12-27T16:37:09.562Z,6.57
2018-12-27T16:39:46.439Z,7.87
2018-12-27T16:42:22.362Z,8.77
2018-12-27T16:44:56.431Z,6.70
2018-12-27T16:47:31.661Z,6.90
2018-12-27T16:50:06.989Z,7.17
2018-12-27T16:52:44.098Z,5.70
2018-12-27T16:55:18.038Z,5.80
2018-12-27T16:57:53.108Z,5.80
2018-12-27T17:00:29.423Z,10.43
2018-12-27T17:03:04.503Z,10.97
2018-12-27T17:05:38.923Z,12.07
2018-12-27T17:08:14.191Z,8.93
2018-12-27T17:10:48.188Z,9.80
2018-12-27T17:13:22.073Z,5.53
2018-12-27T17:15:56.082Z,6.17
2018-12-27T17:18:29.925Z,7.57
2018-12-27T17:21:07.044Z,8.03
2018-12-27T17:23:43.481Z,7.73
2018-12-27T17:26:18.348Z,7.63
2018-12-27T17:28:52.293Z,6.67
2018-12-27T17:31:30.027Z,6.40
2018-12-27T17:34:06.381Z,45.57
2018-12-27T17:36:43.024Z,83.73
2018-12-27T17:39:37.893Z,227.00
2018-12-27T17:42:14.071Z,131.40
2018-12-27T17:44:52.265Z,50.63
2018-12-27T17:47:26.204Z,45.07
2018-12-27T17:50:00.328Z,28.53
2018-12-27T17:52:34.334Z,10.23
2018-12-27T17:55:13.614Z,8.23
2018-12-27T17:57:48.582Z,10.00
2018-12-27T18:00:24.374Z,9.17
2018-12-27T18:02:59.590Z,7.70
2018-12-27T18:05:34.767Z,8.40
2018-12-27T18:08:10.922Z,8.63
2018-12-27T18:10:45.166Z,6.33
2018-12-27T18:13:42.605Z,6.63
2018-12-27T18:16:17.703Z,6.73
2018-12-27T18:18:52.847Z,5.50
2018-12-27T18:21:30.405Z,6.73
2018-12-27T18:24:05.895Z,8.17
2018-12-27T18:27:02.669Z,6.60
2018-12-27T18:29:42.545Z,6.83
2018-12-27T18:32:20.887Z,7.60
2018-12-27T18:34:58.382Z,6.93
2018-12-27T18:37:37.584Z,7.03
2018-12-27T18:40:10.321Z,7.53
2018-12-27T18:43:05.132Z,7.50
2018-12-27T18:45:40.155Z,13.27
2018-12-27T18:48:15.185Z,8.03
2018-12-27T18:51:19.330Z,7.30
2018-12-27T18:53:59.661Z,7.50
2018-12-27T18:56:39.347Z,6.27
2018-12-27T18:59:26.255Z,6.80
2018-12-27T19:02:01.911Z,6.00
2018-12-27T19:04:38.563Z,6.67
2018-12-27T19:07:24.987Z,6.83
2018-12-27T19:10:01.275Z,6.37
2018-12-27T19:13:08.098Z,7.40
2018-12-27T19:15:53.249Z,7.37
2018-12-27T19:18:39.043Z,8.97
2018-12-27T19:21:29.183Z,8.83
2018-12-27T19:24:03.440Z,9.77
2018-12-27T19:26:37.481Z,7.13
2018-12-27T19:29:16.277Z,4.97
2018-12-27T19:31:52.823Z,5.37
2018-12-27T19:34:28.480Z,4.63
2018-12-27T19:37:04.103Z,4.97
2018-12-27T19:39:41.754Z,3.30
2018-12-27T19:42:36.628Z,3.83
2018-12-27T19:45:03.824Z,4.17
2018-12-27T19:47:39.919Z,7.00
2018-12-27T19:50:17.052Z,5.23
2018-12-27T19:52:57.272Z,5.03
2018-12-27T19:55:35.271Z,3.30
2018-12-27T19:58:41.092Z,3.30
2018-12-27T20:01:16.373Z,3.10
2018-12-27T20:03:50.186Z,3.20
2018-12-27T20:06:24.295Z,2.57
2018-12-27T20:09:04.033Z,4.40
2018-12-27T20:11:42.326Z,3.27
2018-12-27T20:17:18.596Z,3.97
2018-12-27T20:20:00.794Z,5.70
2018-12-27T20:22:39.055Z,6.43
2018-12-27T20:25:16.545Z,5.23
2018-12-27T20:30:59.367Z,5.37
2018-12-27T20:33:41.841Z,5.87
2018-12-27T20:36:17.751Z,5.17
2018-12-27T20:38:59.044Z,4.60
2018-12-27T20:44:51.472Z,6.00
2018-12-27T20:47:27.534Z,3.97
2018-12-27T20:50:01.549Z,2.50
2018-12-27T20:52:46.000Z,2.80
2018-12-27T20:55:21.552Z,3.20
2018-12-27T20:58:07.904Z,2.90
2018-12-27T21:00:42.068Z,3.83
2018-12-27T21:03:25.590Z,1.90
2018-12-27T21:06:00.117Z,2.20
2018-12-27T21:08:43.241Z,2.57
2018-12-27T21:11:17.796Z,3.33
2018-12-27T21:14:21.205Z,3.23
2018-12-27T21:16:55.170Z,3.93
2018-12-27T21:19:35.256Z,3.63
2018-12-27T21:22:11.073Z,2.27
2018-12-27T21:24:46.150Z,4.03
2018-12-27T21:27:27.176Z,2.37
2018-12-27T21:30:06.477Z,4.07
2018-12-27T21:32:40.550Z,2.63
2018-12-27T21:35:19.484Z,3.77
2018-12-27T21:37:58.201Z,2.83
2018-12-27T21:40:37.296Z,2.80
2018-12-27T21:46:21.026Z,5.23
2018-12-27T21:49:00.437Z,3.20
2018-12-27T21:51:45.376Z,4.70
2018-12-27T21:54:24.511Z,3.80
2018-12-27T21:56:58.486Z,3.43
2018-12-27T22:00:01.300Z,3.97
2018-12-27T22:02:35.187Z,4.57
2018-12-27T22:05:14.478Z,2.93
2018-12-27T22:07:51.235Z,3.23
2018-12-27T22:10:25.267Z,4.23
2018-12-27T22:15:56.499Z,3.60
2018-12-27T22:18:32.377Z,7.83
2018-12-27T22:21:06.462Z,8.30
2018-12-27T22:23:50.906Z,5.70
2018-12-27T22:26:24.936Z,6.17
2018-12-27T22:29:06.326Z,4.13
2018-12-27T22:31:57.599Z,3.30
2018-12-27T22:34:31.959Z,6.73
2018-12-27T22:37:06.085Z,3.63
2018-12-27T22:39:44.660Z,2.13
2018-12-27T22:42:25.176Z,4.20
2018-12-27T22:45:22.230Z,2.50
2018-12-27T22:47:57.694Z,4.60
2018-12-27T22:50:31.669Z,2.43
2018-12-27T22:53:05.821Z,2.33
2018-12-27T22:55:46.255Z,2.57
2018-12-27T22:58:21.914Z,3.27
2018-12-27T23:01:01.652Z,2.30
2018-12-27T23:04:00.682Z,2.97
2018-12-27T23:06:45.086Z,2.57
2018-12-27T23:09:27.458Z,2.97
2018-12-27T23:12:03.242Z,3.40
2018-12-27T23:14:37.464Z,3.80
2018-12-27T23:17:26.092Z,2.50
2018-12-27T23:20:00.170Z,3.17
2018-12-27T23:22:42.302Z,2.30
2018-12-27T23:25:16.340Z,2.60
2018-12-27T23:28:00.319Z,3.20
2018-12-27T23:30:35.258Z,4.07
2018-12-27T23:33:26.090Z,2.87
2018-12-27T23:36:08.237Z,2.30
2018-12-27T23:38:50.076Z,3.77
2018-12-27T23:41:22.473Z,2.83
2018-12-27T23:43:59.927Z,3.20
2018-12-27T23:46:35.679Z,2.67
2018-12-27T23:49:20.688Z,2.23
2018-12-27T23:51:54.828Z,5.73
2018-12-27T23:54:28.729Z,4.53
2018-12-27T23:57:13.316Z,3.90
2018-12-27T23:59:47.462Z,7.37
